West Liberty, IL

08:35 PM CST del 29 Gennaio 2015 (GMT -0600)
Olney-Noble | Change Station
CLOSE
Current Station
Aeroporto
Location: Olney-Noble,
Altitudine: 482 ft
Stazioni meteo nelle vicinanze
Avvisi attivi: Special Statement

Alt. 482 ft 38.72 °N, 88.18 °W | Updated 20 minutes ago

Coperto
Coperto
34 °F
Sembra 24 °F
N
15
Vento Variabile Vento da NO
Gusts 21 mph

Oggi
Massima -- | Minima -- °F
--% Possibilità di precip.
Ieri
Massima -- | Minima -- °F
Precip. -- in
7:01 AM 5:10 PM
Gobba a ponente, 79% visible
Pressione 30.33 in
Visibilità 10.0 miglia
Nuvole Nubi sparse 2000 ft
Coperto 3200 ft
Raffreddamento del vento 24 °F
Punto di rugiada 32 °F
Umidità 93%
Piovosità 0.02 in
Spessore del manto nevoso Non disponibile.
Raggi UV 0 fuori da 12
Polline 1.40 fuori da 12
Qualità dell'aria Non disponibile.
Flu Activity Non disponibile.
METAR KOLY 300215Z AUTO 31013G18KT 10SM SCT020 OVC032 01/00 A3033 RMK AO2

More Conditions Fewer Conditions

Pressione 30.33 in
Visibilità 10.0 miglia
Nuvole Nubi sparse 2000 ft
Coperto 3200 ft
Raffreddamento del vento 24 °F
Punto di rugiada 32 °F
Umidità 93%
Piovosità 0.02 in
Spessore del manto nevoso Non disponibile.
Raggi UV 0 fuori da 12
Polline 1.40 fuori da 12
Qualità dell'aria Non disponibile.
Flu Activity Non disponibile.
METAR KOLY 300215Z AUTO 31013G18KT 10SM SCT020 OVC032 01/00 A3033 RMK AO2

More Conditions Fewer Conditions

10-Day Weather Forecast

Almanac

Astronomia

Jan. 29, 2015 Alba Tramonto
Ora attuale
Crepuscolo civile
Crepuscolo nautico
Crepuscolo astronomico
Luna
Estensione della luce visibile
Lunghezza del giorno
Tomorrow will be .
, % of the Moon is Illuminated

Gli estremi di oggi

State Highs State Lows

Community

WunderPhotos

Upload Photos

1,791,695 foto caricate!

WunderBlogs® & News

Nearby

Qualità dell'aria

  Qualità dell'aria Indice AQ Inquinante
Not available.

Profondità neve

Stazione Profondità Altitudine

Attività sismica

Città  Distanza Mag. Data & Ora
Minimo Magnitudo Mostrato è 2.5.

Temperature delle acque costiere

Località Temperatura

Stazioni meteo nelle vicinanze